Time;durP1;ratioP1;P1;durP2;ratioP2;P2;SDS_P1;SDS_P2;PMS_P1;PMS_P2;Temp;Humidity;BMP_temperature;BMP_pressure;BME280_temperature;BME280_humidity;BME280_pressure;Samples;Min_cycle;Max_cycle;Signal;HPM_P1;HPM_P2
2023/10/19 00:00:22;;;;;;;28.73;13.87;;;2.50;99.90;;;;;;4244472;27;20263;-57
2023/10/19 00:02:23;;;;;;;25.53;12.60;;;2.40;99.90;;;;;;4244249;27;20275;-59
2023/10/19 00:04:32;;;;;;;26.47;13.10;;;2.40;99.90;;;;;;4243956;27;20275;-59
2023/10/19 00:06:33;;;;;;;21.43;12.53;;;2.30;99.90;;;;;;4245441;27;20696;-60
2023/10/19 00:08:44;;;;;;;22.90;13.30;;;2.30;99.90;;;;;;4244221;27;20316;-58
2023/10/19 00:11:01;;;;;;;27.40;12.73;;;2.20;99.90;;;;;;4244442;27;20352;-59
2023/10/19 00:13:06;;;;;;;23.07;11.97;;;2.10;99.90;;;;;;4243276;27;20095;-57
2023/10/19 00:15:11;;;;;;;28.90;13.70;;;2.10;99.90;;;;;;4245304;27;20279;-58
2023/10/19 00:17:14;;;;;;;27.73;14.63;;;2.10;99.90;;;;;;4243800;27;20259;-58
2023/10/19 00:19:19;;;;;;;26.13;12.80;;;2.10;99.90;;;;;;4245082;27;20423;-57
2023/10/19 00:21:23;;;;;;;26.03;14.10;;;2.00;99.90;;;;;;4244495;27;20822;-60
2023/10/19 00:23:31;;;;;;;27.53;14.57;;;2.00;99.90;;;;;;4244437;27;20271;-55
2023/10/19 00:25:41;;;;;;;27.40;14.00;;;2.00;99.90;;;;;;4244225;27;20333;-60
2023/10/19 00:27:42;;;;;;;27.07;14.90;;;1.90;99.90;;;;;;4244409;27;20283;-59
2023/10/19 00:29:50;;;;;;;21.37;13.10;;;2.00;99.90;;;;;;4243934;27;20299;-60
2023/10/19 00:31:52;;;;;;;25.53;13.87;;;1.90;99.90;;;;;;4227766;27;20280;-56
2023/10/19 00:33:56;;;;;;;26.87;13.70;;;2.00;99.90;;;;;;4232162;27;20319;-59
2023/10/19 00:36:12;;;;;;;30.03;14.03;;;2.00;99.90;;;;;;4243836;27;20255;-57
2023/10/19 00:40:34;;;;;;;26.67;14.47;;;1.90;99.90;;;;;;4237644;27;20324;-60
2023/10/19 00:42:39;;;;;;;28.83;14.83;;;1.90;99.90;;;;;;4244533;27;20247;-57
2023/10/19 00:44:48;;;;;;;30.20;14.97;;;1.90;99.90;;;;;;4243967;27;20263;-59
2023/10/19 00:47:00;;;;;;;26.93;13.87;;;1.90;99.90;;;;;;4242598;27;20673;-58
2023/10/19 00:49:05;;;;;;;27.07;13.27;;;1.90;99.90;;;;;;4243658;27;20776;-58
2023/10/19 00:51:09;;;;;;;24.10;12.87;;;1.90;99.90;;;;;;4244492;27;20662;-59
2023/10/19 00:53:12;;;;;;;24.73;13.07;;;1.90;99.90;;;;;;4243732;27;20290;-59
2023/10/19 00:55:15;;;;;;;29.27;14.43;;;1.90;99.90;;;;;;4244463;27;20708;-58
2023/10/19 00:57:20;;;;;;;28.93;14.70;;;1.80;99.90;;;;;;4243599;27;20259;-59
2023/10/19 00:59:23;;;;;;;23.73;13.53;;;1.80;99.90;;;;;;4244753;27;20275;-58
2023/10/19 01:01:28;;;;;;;25.83;14.27;;;1.80;99.90;;;;;;4243503;27;20332;-60
2023/10/19 01:03:32;;;;;;;35.13;15.40;;;1.80;99.90;;;;;;4244891;27;20678;-58
2023/10/19 01:05:36;;;;;;;29.33;14.27;;;1.80;99.90;;;;;;4243417;27;20263;-59
2023/10/19 01:07:38;;;;;;;32.23;14.37;;;1.80;99.90;;;;;;4244843;27;20251;-59
2023/10/19 01:09:40;;;;;;;28.07;14.80;;;1.80;99.90;;;;;;4243031;27;20336;-59
2023/10/19 01:11:45;;;;;;;30.40;14.90;;;1.70;99.90;;;;;;4244838;27;20295;-58
2023/10/19 01:13:48;;;;;;;31.53;15.40;;;1.70;99.90;;;;;;4241128;27;20328;-60
2023/10/19 01:15:49;;;;;;;31.20;16.30;;;1.70;99.90;;;;;;4243855;27;20271;-61
2023/10/19 01:18:14;;;;;;;30.20;15.77;;;1.70;99.90;;;;;;4243174;28;20676;-60
2023/10/19 01:20:23;;;;;;;27.83;14.50;;;1.70;99.90;;;;;;4243980;28;20271;-59
2023/10/19 01:22:26;;;;;;;30.27;15.47;;;1.70;99.90;;;;;;4247689;27;20297;-60
2023/10/19 01:24:40;;;;;;;27.07;15.83;;;1.70;99.90;;;;;;4249875;27;20347;-59
2023/10/19 01:26:42;;;;;;;34.10;15.73;;;1.70;99.90;;;;;;4248583;27;20371;-58
2023/10/19 01:28:53;;;;;;;33.00;15.93;;;1.60;99.90;;;;;;4250269;27;20283;-60
2023/10/19 01:30:55;;;;;;;29.37;15.47;;;1.60;99.90;;;;;;4248667;27;20307;-58
2023/10/19 01:32:57;;;;;;;33.97;15.90;;;1.50;99.90;;;;;;4250151;27;20319;-58
2023/10/19 01:34:58;;;;;;;30.60;14.33;;;1.50;99.90;;;;;;4248876;27;20320;-58
2023/10/19 01:37:04;;;;;;;29.83;16.33;;;1.40;99.90;;;;;;4249628;27;20379;-58
2023/10/19 01:39:09;;;;;;;34.77;18.73;;;1.30;99.90;;;;;;4248769;27;20304;-59
2023/10/19 01:41:14;;;;;;;32.90;17.53;;;1.20;99.90;;;;;;4249119;27;20693;-58
2023/10/19 01:43:21;;;;;;;36.83;17.67;;;1.10;99.90;;;;;;4249513;27;20327;-57
2023/10/19 01:45:22;;;;;;;31.93;15.70;;;1.10;99.90;;;;;;4248972;27;20283;-58
2023/10/19 01:47:24;;;;;;;36.63;18.03;;;1.10;99.90;;;;;;4249439;27;20279;-59
2023/10/19 01:49:26;;;;;;;36.40;17.53;;;1.00;99.90;;;;;;4247900;27;20331;-58
2023/10/19 01:51:29;;;;;;;29.67;15.57;;;1.00;99.90;;;;;;4249641;27;20328;-59
2023/10/19 01:53:31;;;;;;;35.17;15.70;;;1.00;99.90;;;;;;4248392;27;20275;-56
2023/10/19 01:55:37;;;;;;;31.10;16.47;;;1.00;99.90;;;;;;4249889;27;20332;-59
2023/10/19 01:57:39;;;;;;;34.20;19.30;;;1.10;99.90;;;;;;4248482;27;20271;-58
2023/10/19 01:59:44;;;;;;;38.00;18.63;;;1.10;99.90;;;;;;4249686;27;21156;-58
2023/10/19 02:01:45;;;;;;;37.30;17.97;;;1.00;99.90;;;;;;4248525;27;20275;-57
2023/10/19 02:03:53;;;;;;;33.00;17.63;;;1.00;99.90;;;;;;4250079;27;20576;-59
2023/10/19 02:06:09;;;;;;;48.93;17.93;;;1.10;99.90;;;;;;4248412;27;20287;-59
2023/10/19 02:08:10;;;;;;;33.10;17.00;;;1.00;99.90;;;;;;4233362;27;20391;-58
2023/10/19 02:10:12;;;;;;;32.07;16.77;;;0.90;99.90;;;;;;4237957;27;20294;-59
2023/10/19 02:12:13;;;;;;;34.93;17.80;;;0.90;99.90;;;;;;4249922;27;20271;-60
2023/10/19 02:14:16;;;;;;;35.13;16.57;;;0.90;99.90;;;;;;4248157;27;20279;-58
2023/10/19 02:16:22;;;;;;;37.03;17.10;;;0.80;99.90;;;;;;4232799;27;20264;-60
2023/10/19 02:18:23;;;;;;;30.93;16.27;;;0.80;99.90;;;;;;4247726;27;20332;-59
2023/10/19 02:20:24;;;;;;;32.07;16.37;;;0.80;99.90;;;;;;4249463;27;20375;-57
2023/10/19 02:22:25;;;;;;;32.23;17.07;;;0.80;99.90;;;;;;4248816;27;20264;-59
2023/10/19 02:24:27;;;;;;;30.73;15.90;;;0.80;99.90;;;;;;4248634;27;20745;-59
2023/10/19 02:26:30;;;;;;;33.30;16.47;;;0.70;99.90;;;;;;4248926;27;20271;-59
2023/10/19 02:28:31;;;;;;;31.20;15.67;;;0.70;99.90;;;;;;4248788;27;20292;-57
2023/10/19 02:30:36;;;;;;;32.50;16.93;;;0.70;99.90;;;;;;4249073;27;20759;-59
2023/10/19 02:32:37;;;;;;;30.63;17.00;;;0.70;99.90;;;;;;4246503;27;20271;-59
2023/10/19 02:34:38;;;;;;;33.13;17.03;;;0.70;99.90;;;;;;4247247;27;20267;-59
2023/10/19 02:36:40;;;;;;;36.73;18.57;;;0.70;99.90;;;;;;4245512;27;20679;-59
2023/10/19 02:38:48;;;;;;;33.57;18.00;;;0.80;99.90;;;;;;4246623;27;20332;-59
2023/10/19 02:40:50;;;;;;;36.23;17.43;;;0.80;99.90;;;;;;4245748;27;20283;-59
2023/10/19 02:42:53;;;;;;;32.53;16.57;;;0.80;99.90;;;;;;4247003;27;20329;-59
2023/10/19 02:44:54;;;;;;;31.40;15.50;;;0.80;99.90;;;;;;4245650;27;20287;-59
2023/10/19 02:46:59;;;;;;;27.07;14.77;;;0.80;99.90;;;;;;4246553;27;20328;-58
2023/10/19 02:49:09;;;;;;;30.70;16.27;;;0.80;99.90;;;;;;4245149;27;20279;-60
2023/10/19 02:51:11;;;;;;;30.75;16.45;;;0.80;99.90;;;;;;4242648;27;20291;-56
2023/10/19 02:53:13;;;;;;;32.37;17.37;;;0.90;99.90;;;;;;4245438;27;20080;-58
2023/10/19 02:55:19;;;;;;;28.77;15.90;;;0.90;99.90;;;;;;4245220;27;20263;-59
2023/10/19 02:57:20;;;;;;;29.33;15.93;;;0.90;99.90;;;;;;4245185;27;20263;-58
2023/10/19 02:59:23;;;;;;;37.83;15.70;;;0.90;99.90;;;;;;4245977;27;20732;-58
2023/10/19 03:01:30;;;;;;;34.10;17.27;;;0.90;99.90;;;;;;4245351;27;20831;-60
2023/10/19 03:03:31;;;;;;;32.27;16.73;;;0.80;99.90;;;;;;4245732;27;20280;-57
2023/10/19 03:05:34;;;;;;;34.50;16.97;;;0.70;99.90;;;;;;4245723;27;20880;-60
2023/10/19 03:07:35;;;;;;;36.93;18.73;;;0.70;99.90;;;;;;4245868;27;20691;-60
2023/10/19 03:09:36;;;;;;;37.47;19.80;;;0.60;99.90;;;;;;4245587;27;20328;-59
2023/10/19 03:11:38;;;;;;;35.83;18.17;;;0.60;99.90;;;;;;4244977;27;20747;-60
2023/10/19 03:13:43;;;;;;;37.53;17.73;;;0.60;99.90;;;;;;4245623;27;20260;-60
2023/10/19 03:15:45;;;;;;;37.00;18.37;;;0.60;99.90;;;;;;4244248;27;20863;-59
2023/10/19 03:17:46;;;;;;;34.73;17.87;;;0.60;99.90;;;;;;4243761;27;20767;-60
2023/10/19 03:19:48;;;;;;;33.00;17.67;;;0.60;99.90;;;;;;4244276;27;20320;-60
2023/10/19 03:21:50;;;;;;;34.37;17.43;;;0.50;99.90;;;;;;4245516;27;20759;-59
2023/10/19 03:23:51;;;;;;;36.53;17.87;;;0.50;99.90;;;;;;4244001;27;20736;-59
2023/10/19 03:28:11;;;;;;;;;;;0.60;99.90;;;;;;4245640;27;20347;-59
2023/10/19 03:30:18;;;;;;;34.47;16.57;;;0.60;99.90;;;;;;4245400;27;20312;-60
2023/10/19 03:32:22;;;;;;;33.47;17.77;;;0.60;99.90;;;;;;4244492;27;20768;-60
2023/10/19 03:34:23;;;;;;;39.27;18.13;;;0.50;99.90;;;;;;4245858;27;20275;-57
2023/10/19 03:36:26;;;;;;;34.23;19.10;;;0.40;99.90;;;;;;4244760;27;20321;-60
2023/10/19 03:38:31;;;;;;;37.07;18.77;;;0.30;99.90;;;;;;4244088;27;20267;-60
2023/10/19 03:40:34;;;;;;;35.90;18.43;;;0.30;99.90;;;;;;4244568;27;20259;-58
2023/10/19 03:42:40;;;;;;;38.77;19.77;;;0.30;99.90;;;;;;4245047;27;20271;-58
2023/10/19 03:47:04;;;;;;;40.60;18.83;;;0.20;99.90;;;;;;4245246;27;20324;-61
2023/10/19 03:49:10;;;;;;;32.23;17.63;;;0.10;99.90;;;;;;4245621;27;20755;-60
2023/10/19 03:51:13;;;;;;;32.63;17.60;;;0.10;99.90;;;;;;4244724;27;20290;-60
2023/10/19 03:53:14;;;;;;;35.57;17.77;;;0.00;99.90;;;;;;4244901;27;20259;-59
2023/10/19 03:55:19;;;;;;;39.43;17.53;;;-0.10;99.90;;;;;;4244937;27;20420;-60
2023/10/19 03:57:22;;;;;;;31.10;16.47;;;-0.20;99.90;;;;;;4244640;27;20804;-59
2023/10/19 03:59:29;;;;;;;28.27;14.67;;;-0.30;99.90;;;;;;4243054;27;20335;-58
2023/10/19 04:01:31;;;;;;;29.47;15.80;;;-0.40;99.90;;;;;;4243807;27;20403;-57
2023/10/19 04:03:32;;;;;;;35.97;17.93;;;-0.50;99.90;;;;;;4243388;27;20344;-56
2023/10/19 04:05:38;;;;;;;33.77;17.73;;;-0.50;99.90;;;;;;4244472;27;20264;-59
2023/10/19 04:07:39;;;;;;;34.10;16.50;;;-0.60;99.90;;;;;;4242706;27;20283;-55
2023/10/19 04:12:02;;;;;;;37.03;18.50;;;-0.70;99.90;;;;;;4243475;27;20339;-55
2023/10/19 04:14:03;;;;;;;35.33;19.27;;;-0.70;99.90;;;;;;4243526;27;20355;-59
2023/10/19 04:16:10;;;;;;;39.93;19.80;;;-0.70;99.90;;;;;;4242978;27;20267;-58
2023/10/19 04:18:11;;;;;;;40.93;20.10;;;-0.60;99.90;;;;;;4244794;27;20273;-58
2023/10/19 04:20:28;;;;;;;37.20;20.13;;;-0.60;99.90;;;;;;4243677;27;20688;-58
2023/10/19 04:22:30;;;;;;;45.50;22.03;;;-0.50;99.90;;;;;;4244125;27;20329;-59
2023/10/19 04:24:34;;;;;;;48.37;23.97;;;-0.40;99.90;;;;;;4243040;27;20345;-59
2023/10/19 04:26:38;;;;;;;65.70;25.13;;;-0.40;99.90;;;;;;4244750;27;20807;-58
2023/10/19 04:28:44;;;;;;;55.50;26.77;;;-0.40;99.90;;;;;;4243442;27;20383;-57
2023/10/19 04:30:45;;;;;;;44.67;22.57;;;-0.40;99.90;;;;;;4243155;27;20328;-59
2023/10/19 04:32:50;;;;;;;47.53;21.47;;;-0.50;99.90;;;;;;4243238;27;20267;-56
2023/10/19 04:34:52;;;;;;;50.00;24.73;;;-0.50;99.90;;;;;;4244739;27;20279;-60
2023/10/19 04:36:54;;;;;;;56.00;23.80;;;-0.50;99.90;;;;;;4243095;27;20340;-58
2023/10/19 04:38:55;;;;;;;58.60;25.57;;;-0.50;99.90;;;;;;4244267;27;20274;-60
2023/10/19 04:41:07;;;;;;;54.47;24.87;;;-0.50;99.90;;;;;;4243231;27;20289;-58
2023/10/19 04:43:08;;;;;;;61.37;23.87;;;-0.60;99.90;;;;;;4244418;27;20617;-54
2023/10/19 04:45:11;;;;;;;60.33;25.03;;;-0.60;99.90;;;;;;4244018;27;20596;-58
2023/10/19 04:47:12;;;;;;;62.80;27.30;;;-0.60;99.90;;;;;;4227855;27;20335;-59
2023/10/19 04:49:14;;;;;;;76.07;30.50;;;-0.60;99.90;;;;;;4244271;27;20279;-57
2023/10/19 04:51:15;;;;;;;68.40;31.13;;;-0.70;99.90;;;;;;4243667;27;20283;-58
2023/10/19 04:53:16;;;;;;;162.20;34.87;;;-0.80;99.90;;;;;;4244021;27;20252;-59
2023/10/19 04:55:18;;;;;;;80.57;26.60;;;-0.80;99.90;;;;;;4243406;27;20767;-59
2023/10/19 04:57:20;;;;;;;83.30;27.10;;;-0.80;99.90;;;;;;4244515;27;20260;-56
2023/10/19 04:59:21;;;;;;;90.00;30.03;;;-0.90;99.90;;;;;;4243430;27;20332;-60
2023/10/19 05:01:22;;;;;;;75.60;29.40;;;-1.00;99.90;;;;;;4244037;27;20906;-60
2023/10/19 05:03:25;;;;;;;153.67;33.97;;;-1.00;99.90;;;;;;4230273;27;20316;-60
2023/10/19 05:05:26;;;;;;;71.77;30.40;;;-0.90;99.90;;;;;;4244378;27;20641;-61
2023/10/19 05:07:27;;;;;;;113.07;29.87;;;-0.90;99.90;;;;;;4242662;27;20281;-60
2023/10/19 05:09:28;;;;;;;115.30;33.73;;;-0.80;99.90;;;;;;4243939;27;20275;-59
2023/10/19 05:11:29;;;;;;;104.10;30.97;;;-0.80;99.90;;;;;;4243076;27;20306;-60
2023/10/19 05:13:32;;;;;;;176.40;31.60;;;-0.70;99.90;;;;;;4243508;27;20328;-60
2023/10/19 05:15:36;;;;;;;234.37;40.23;;;-0.70;99.90;;;;;;4239103;27;20308;-61
2023/10/19 05:17:38;;;;;;;79.83;28.53;;;-0.70;99.90;;;;;;4243993;27;20259;-60
2023/10/19 05:19:40;;;;;;;117.23;28.93;;;-0.70;99.90;;;;;;4244499;27;20316;-60
2023/10/19 05:21:41;;;;;;;130.17;29.23;;;-0.50;99.90;;;;;;4242159;28;20427;-60
2023/10/19 05:23:42;;;;;;;124.23;28.67;;;-0.50;99.90;;;;;;4230577;28;20256;-61
2023/10/19 05:25:43;;;;;;;78.77;28.43;;;-0.50;99.90;;;;;;4231375;28;20321;-60
2023/10/19 05:27:45;;;;;;;99.30;27.77;;;-0.40;99.90;;;;;;4239000;28;20375;-61
2023/10/19 05:29:46;;;;;;;111.40;31.03;;;-0.30;99.90;;;;;;4234053;28;20320;-61
2023/10/19 05:31:53;;;;;;;185.80;36.77;;;-0.30;99.90;;;;;;4230761;28;20760;-61
2023/10/19 05:33:55;;;;;;;130.00;28.17;;;-0.30;99.90;;;;;;4224912;28;20276;-59
2023/10/19 05:35:56;;;;;;;65.03;26.57;;;-0.30;99.90;;;;;;4227316;28;20275;-58
2023/10/19 05:37:58;;;;;;;99.90;28.77;;;-0.30;99.90;;;;;;4227048;28;20672;-59
2023/10/19 05:39:59;;;;;;;73.40;27.70;;;-0.20;99.90;;;;;;4244678;27;20728;-60
2023/10/19 05:42:00;;;;;;;57.53;27.80;;;-0.20;99.90;;;;;;4234355;28;20313;-60
2023/10/19 05:44:01;;;;;;;57.73;27.60;;;-0.10;99.90;;;;;;4227167;28;20276;-61
2023/10/19 05:46:02;;;;;;;71.10;29.50;;;0.00;99.90;;;;;;4237091;28;20751;-61
2023/10/19 05:48:06;;;;;;;65.27;28.53;;;0.20;99.90;;;;;;4235519;27;20279;-60
2023/10/19 05:50:07;;;;;;;83.23;30.53;;;0.30;99.90;;;;;;4238436;27;20321;-60
2023/10/19 05:52:08;;;;;;;73.27;30.60;;;0.40;99.90;;;;;;4233877;27;20337;-61
2023/10/19 05:54:10;;;;;;;64.40;29.60;;;0.40;99.90;;;;;;4241076;28;20332;-60
2023/10/19 05:56:11;;;;;;;70.17;30.97;;;0.50;99.90;;;;;;4235252;28;20263;-60
2023/10/19 05:58:12;;;;;;;62.50;29.40;;;0.50;99.90;;;;;;4234565;27;20715;-60
2023/10/19 06:00:15;;;;;;;144.83;36.67;;;0.60;99.90;;;;;;4238456;28;20948;-60
2023/10/19 06:02:17;;;;;;;80.77;30.37;;;0.70;99.90;;;;;;4231217;27;20625;-60
2023/10/19 06:04:20;;;;;;;65.60;30.77;;;0.70;99.90;;;;;;4242554;28;20728;-61
2023/10/19 06:06:21;;;;;;;66.13;29.13;;;0.80;99.90;;;;;;4244040;27;20264;-60
2023/10/19 06:08:23;;;;;;;66.97;31.10;;;0.80;99.90;;;;;;4244246;27;20275;-60
2023/10/19 06:10:24;;;;;;;70.10;29.73;;;0.80;99.90;;;;;;4246884;27;20263;-61
2023/10/19 06:12:25;;;;;;;66.03;29.40;;;0.80;99.90;;;;;;4244915;27;20295;-61
2023/10/19 06:14:27;;;;;;;55.70;27.33;;;0.80;99.90;;;;;;4246945;27;20263;-61
2023/10/19 06:16:28;;;;;;;68.77;29.10;;;0.90;99.90;;;;;;4245054;27;20608;-61
2023/10/19 06:18:30;;;;;;;54.23;27.20;;;0.90;99.90;;;;;;4245866;27;20815;-61
2023/10/19 06:20:31;;;;;;;56.20;27.43;;;1.00;99.90;;;;;;4246920;27;20255;-60
2023/10/19 06:22:32;;;;;;;52.83;25.97;;;0.90;99.90;;;;;;4240220;27;20276;-58
2023/10/19 06:24:33;;;;;;;58.77;28.00;;;0.90;99.90;;;;;;4229511;28;20640;-60
2023/10/19 06:26:34;;;;;;;64.57;31.67;;;0.90;99.90;;;;;;4242715;27;20287;-61
2023/10/19 06:28:38;;;;;;;72.90;31.37;;;0.90;99.90;;;;;;4246569;27;20260;-60
2023/10/19 06:30:40;;;;;;;64.37;28.90;;;0.90;99.90;;;;;;4243273;27;20276;-61
2023/10/19 06:32:41;;;;;;;67.97;29.57;;;1.00;99.90;;;;;;4237043;27;20272;-60
2023/10/19 06:34:42;;;;;;;58.17;26.23;;;1.10;99.90;;;;;;4233065;27;20275;-60
2023/10/19 06:36:43;;;;;;;63.73;29.80;;;1.20;99.90;;;;;;4246557;27;20739;-60
2023/10/19 06:38:45;;;;;;;58.87;28.07;;;1.30;99.90;;;;;;4245187;27;20263;-60
2023/10/19 06:40:47;;;;;;;62.80;30.63;;;1.40;99.90;;;;;;4246358;27;20307;-59
2023/10/19 06:42:49;;;;;;;70.37;32.17;;;1.60;99.90;;;;;;4232934;27;20275;-61
2023/10/19 06:44:53;;;;;;;63.93;31.50;;;1.80;99.90;;;;;;4246514;27;20256;-61
2023/10/19 06:46:55;;;;;;;76.87;31.43;;;1.90;99.90;;;;;;4242922;27;20328;-60
2023/10/19 06:49:00;;;;;;;71.07;29.97;;;2.10;99.90;;;;;;4234602;27;20287;-61
2023/10/19 06:51:01;;;;;;;78.27;33.97;;;2.10;99.90;;;;;;4244391;27;20344;-61
2023/10/19 06:53:05;;;;;;;65.17;30.50;;;2.30;99.90;;;;;;4238982;27;20295;-57
2023/10/19 06:55:13;;;;;;;69.50;29.77;;;2.40;99.90;;;;;;4234734;27;20311;-58
2023/10/19 06:57:14;;;;;;;49.93;25.43;;;2.60;99.90;;;;;;4242491;27;20287;-61
2023/10/19 06:59:17;;;;;;;43.50;21.93;;;2.70;99.90;;;;;;4245095;27;20328;-60
2023/10/19 07:01:20;;;;;;;42.83;21.80;;;2.80;99.90;;;;;;4244163;27;20271;-62
2023/10/19 07:03:22;;;;;;;34.03;19.57;;;2.70;99.90;;;;;;4244928;27;20363;-61
2023/10/19 07:05:24;;;;;;;38.57;21.23;;;2.70;99.90;;;;;;4245161;27;20313;-63
2023/10/19 07:07:25;;;;;;;37.33;19.27;;;2.60;99.90;;;;;;4246137;27;20335;-62
2023/10/19 07:09:26;;;;;;;34.30;17.90;;;2.60;99.90;;;;;;4243588;27;20347;-61
2023/10/19 07:11:27;;;;;;;29.73;17.50;;;2.60;99.90;;;;;;4246202;27;20767;-62
2023/10/19 07:13:32;;;;;;;34.97;16.50;;;2.60;99.90;;;;;;4244757;27;20691;-61
2023/10/19 07:15:34;;;;;;;26.17;16.87;;;2.60;99.90;;;;;;4246459;27;20309;-60
2023/10/19 07:17:37;;;;;;;34.87;18.70;;;2.70;99.90;;;;;;4244363;27;20379;-58
2023/10/19 07:19:43;;;;;;;35.07;17.23;;;2.70;99.90;;;;;;4231374;27;20280;-60
2023/10/19 07:21:48;;;;;;;29.53;17.57;;;2.70;99.90;;;;;;4228530;27;20292;-60
2023/10/19 07:23:52;;;;;;;32.00;17.40;;;2.80;99.90;;;;;;4229200;28;20276;-60
2023/10/19 07:25:59;;;;;;;26.67;16.50;;;2.90;99.90;;;;;;4227756;27;20264;-62
2023/10/19 07:28:00;;;;;;;26.70;16.17;;;2.90;99.90;;;;;;4246021;27;20403;-61
2023/10/19 07:30:06;;;;;;;28.77;16.57;;;2.90;99.90;;;;;;4244094;27;20605;-60
2023/10/19 07:32:11;;;;;;;26.73;17.00;;;3.00;99.90;;;;;;4241018;27;20279;-52
2023/10/19 07:34:15;;;;;;;34.13;17.17;;;3.10;99.90;;;;;;4237083;27;20353;-60
2023/10/19 07:36:18;;;;;;;27.10;16.70;;;3.20;99.90;;;;;;4230687;27;20280;-60
2023/10/19 07:38:21;;;;;;;35.37;16.80;;;3.30;99.90;;;;;;4244914;27;20774;-59
2023/10/19 07:40:23;;;;;;;30.83;16.17;;;3.40;99.90;;;;;;4245086;27;20259;-61
2023/10/19 07:42:25;;;;;;;31.53;17.47;;;3.50;99.90;;;;;;4244985;27;20276;-61
2023/10/19 07:44:30;;;;;;;34.07;19.07;;;3.50;99.90;;;;;;4244629;27;20355;-60
2023/10/19 07:46:32;;;;;;;29.43;17.73;;;3.60;99.90;;;;;;4244216;27;20741;-61
2023/10/19 07:48:33;;;;;;;37.17;17.93;;;3.70;99.90;;;;;;4244152;27;20483;-61
2023/10/19 07:50:36;;;;;;;29.27;16.70;;;3.70;99.90;;;;;;4245645;27;20316;-61
2023/10/19 07:52:38;;;;;;;29.47;16.83;;;3.80;99.90;;;;;;4244169;27;20681;-60
2023/10/19 07:54:40;;;;;;;33.43;16.03;;;3.80;99.90;;;;;;4245805;27;20716;-61
2023/10/19 07:56:41;;;;;;;30.27;17.20;;;3.90;99.90;;;;;;4244114;27;20255;-61
2023/10/19 07:58:43;;;;;;;34.17;18.13;;;4.10;99.90;;;;;;4228695;28;20248;-61
2023/10/19 08:00:46;;;;;;;36.67;17.43;;;4.30;99.90;;;;;;4243279;27;20805;-61
2023/10/19 08:02:47;;;;;;;36.97;19.10;;;4.40;99.90;;;;;;4245080;27;20735;-60
2023/10/19 08:04:48;;;;;;;31.27;18.23;;;4.50;99.90;;;;;;4244102;27;20320;-60
2023/10/19 08:06:50;;;;;;;30.73;18.30;;;4.60;99.90;;;;;;4245579;27;20324;-61
2023/10/19 08:08:51;;;;;;;32.03;18.47;;;4.70;99.90;;;;;;4243031;27;20256;-59
2023/10/19 08:10:52;;;;;;;33.67;19.17;;;4.80;99.90;;;;;;4244860;27;20308;-61
2023/10/19 08:12:55;;;;;;;36.10;19.73;;;4.80;99.90;;;;;;4243436;27;20340;-61
2023/10/19 08:14:56;;;;;;;38.40;19.37;;;4.90;99.90;;;;;;4241098;27;21057;-62
2023/10/19 08:16:57;;;;;;;33.37;19.23;;;5.00;99.90;;;;;;4245018;27;20256;-61
2023/10/19 08:18:58;;;;;;;31.03;18.33;;;5.20;99.90;;;;;;4244035;27;20320;-62
2023/10/19 08:21:00;;;;;;;29.30;17.00;;;5.40;99.90;;;;;;4245603;27;20679;-62
2023/10/19 08:23:05;;;;;;;30.87;14.77;;;5.50;99.90;;;;;;4243896;27;20328;-61
2023/10/19 08:25:11;;;;;;;24.93;13.80;;;5.70;99.90;;;;;;4244007;27;20739;-63
2023/10/19 08:27:13;;;;;;;22.50;13.43;;;5.90;99.90;;;;;;4226949;28;20031;-60
2023/10/19 08:29:14;;;;;;;23.77;12.97;;;6.10;99.90;;;;;;4228041;28;20276;-63
2023/10/19 08:31:15;;;;;;;23.83;12.77;;;6.20;99.90;;;;;;4226306;28;20040;-60
2023/10/19 08:33:16;;;;;;;25.87;12.23;;;6.30;99.90;;;;;;4240378;27;20039;-58
2023/10/19 08:35:25;;;;;;;21.10;11.13;;;6.40;99.90;;;;;;4244184;27;20035;-60
2023/10/19 08:37:26;;;;;;;18.50;10.33;;;6.40;99.90;;;;;;4245343;27;20100;-61
2023/10/19 08:39:28;;;;;;;20.17;11.97;;;6.50;99.90;;;;;;4244023;27;20068;-61
2023/10/19 08:41:29;;;;;;;17.47;10.03;;;6.50;99.90;;;;;;4245285;27;20452;-60
2023/10/19 08:43:33;;;;;;;17.03;10.33;;;6.60;99.90;;;;;;4243594;27;20084;-63
2023/10/19 08:45:35;;;;;;;17.10;11.10;;;6.60;99.90;;;;;;4241659;27;20499;-61
2023/10/19 08:47:40;;;;;;;16.73;10.47;;;6.60;99.90;;;;;;4244082;27;20466;-60
2023/10/19 08:49:42;;;;;;;19.03;10.47;;;6.60;99.90;;;;;;4244099;27;20105;-62
2023/10/19 08:51:44;;;;;;;17.47;10.60;;;6.70;99.90;;;;;;4243994;27;20058;-60
2023/10/19 08:53:46;;;;;;;18.57;11.27;;;6.70;99.90;;;;;;4243478;27;20035;-59
2023/10/19 08:55:49;;;;;;;18.13;10.37;;;6.70;99.90;;;;;;4244247;27;20068;-58
2023/10/19 08:57:52;;;;;;;17.67;11.00;;;6.70;99.90;;;;;;4243396;27;20096;-60
2023/10/19 08:59:53;;;;;;;19.57;9.90;;;6.70;99.90;;;;;;4244581;27;20072;-59
2023/10/19 09:02:02;;;;;;;16.30;9.67;;;6.70;99.90;;;;;;4243521;27;20088;-61
2023/10/19 09:04:07;;;;;;;17.77;10.43;;;6.70;99.90;;;;;;4244645;27;20042;-60
2023/10/19 09:06:12;;;;;;;15.80;9.83;;;6.80;99.90;;;;;;4243119;27;20036;-59
2023/10/19 09:08:21;;;;;;;16.70;10.53;;;6.90;99.90;;;;;;4244001;27;20086;-60
2023/10/19 09:10:31;;;;;;;20.83;9.93;;;6.90;99.90;;;;;;4239942;27;20104;-60
2023/10/19 09:12:33;;;;;;;17.03;10.67;;;7.00;99.90;;;;;;4244783;27;20055;-61
2023/10/19 09:14:41;;;;;;;18.07;10.77;;;7.10;99.90;;;;;;4243334;27;20267;-59
2023/10/19 09:16:55;;;;;;;17.83;9.37;;;7.20;99.90;;;;;;4234397;27;20031;-59
2023/10/19 09:18:57;;;;;;;18.27;10.10;;;7.20;99.90;;;;;;4243139;27;20384;-59
2023/10/19 09:21:07;;;;;;;16.73;10.30;;;7.30;99.90;;;;;;4243289;28;20035;-59
2023/10/19 09:23:08;;;;;;;13.18;8.52;;;7.30;99.90;;;;;;4225758;27;20084;-59
2023/10/19 09:25:09;;;;;;;17.20;9.50;;;7.40;99.90;;;;;;4227043;28;20032;-57
2023/10/19 09:27:12;;;;;;;16.67;9.40;;;7.50;99.90;;;;;;4226218;28;20124;-59
2023/10/19 09:29:18;;;;;;;15.47;8.87;;;7.70;99.90;;;;;;4227488;28;20019;-58
2023/10/19 09:31:22;;;;;;;14.73;9.27;;;7.80;99.90;;;;;;4226391;28;20032;-60
2023/10/19 09:33:24;;;;;;;13.87;9.00;;;7.80;99.90;;;;;;4241854;28;20047;-61
2023/10/19 09:35:27;;;;;;;13.37;9.27;;;7.80;99.90;;;;;;4243627;27;20116;-53
2023/10/19 09:37:29;;;;;;;15.50;8.63;;;7.80;99.90;;;;;;4242462;28;20689;-59
2023/10/19 09:39:37;;;;;;;17.40;9.20;;;7.80;99.90;;;;;;4242069;28;20019;-58
2023/10/19 09:41:39;;;;;;;17.47;9.53;;;7.80;99.90;;;;;;4234278;27;20592;-59
2023/10/19 09:43:49;;;;;;;16.27;9.70;;;7.80;99.90;;;;;;4243485;27;20454;-59
2023/10/19 09:45:53;;;;;;;14.00;8.70;;;7.90;99.90;;;;;;4246235;27;20032;-59
2023/10/19 09:47:54;;;;;;;14.60;8.33;;;7.90;99.90;;;;;;4237831;27;20155;-59
2023/10/19 09:49:56;;;;;;;16.00;8.77;;;8.00;99.90;;;;;;4239848;27;20112;-58
2023/10/19 09:51:57;;;;;;;16.43;9.23;;;8.00;99.90;;;;;;4247327;27;20577;-59
2023/10/19 09:54:25;;;;;;;13.37;8.40;;;8.10;99.90;;;;;;4245889;27;20413;-59
2023/10/19 09:56:33;;;;;;;12.83;8.37;;;8.20;99.90;;;;;;4246649;27;20027;-57
2023/10/19 09:58:55;;;;;;;13.60;8.87;;;8.30;99.90;;;;;;4246422;27;20035;-59
2023/10/19 10:00:57;;;;;;;14.93;9.23;;;8.40;99.90;;;;;;4246977;27;20012;-60
2023/10/19 10:02:58;;;;;;;15.53;9.30;;;8.50;99.90;;;;;;4245587;27;20389;-57
2023/10/19 10:04:59;;;;;;;17.83;8.87;;;8.70;99.90;;;;;;4174330;27;20031;-61
2023/10/19 10:07:10;;;;;;;13.17;8.30;;;8.80;99.90;;;;;;4170739;27;20972;-61
2023/10/19 10:09:23;;;;;;;12.57;8.70;;;8.80;99.90;;;;;;4176049;27;20046;-61
2023/10/19 10:12:13;;;;;;;16.27;8.63;;;9.00;99.90;;;;;;4175900;27;20127;-61
2023/10/19 10:14:31;;;;;;;12.03;7.60;;;9.00;99.90;;;;;;4162590;28;20088;-61
2023/10/19 10:16:34;;;;;;;14.57;8.30;;;9.00;99.90;;;;;;4217991;28;20105;-61
2023/10/19 10:18:35;;;;;;;16.37;8.50;;;9.20;99.90;;;;;;4229284;28;20039;-59
2023/10/19 10:20:36;;;;;;;14.80;8.50;;;9.20;99.90;;;;;;4228606;28;20028;-59
2023/10/19 10:22:38;;;;;;;14.07;8.77;;;9.20;99.90;;;;;;4228575;28;20093;-59
2023/10/19 10:24:43;;;;;;;14.23;8.87;;;9.20;99.90;;;;;;4229391;28;20051;-58
2023/10/19 10:27:03;;;;;;;17.80;8.87;;;9.20;99.90;;;;;;4228841;28;20093;-61
2023/10/19 10:29:14;;;;;;;13.15;7.25;;;9.40;99.90;;;;;;4229478;28;20016;-61
2023/10/19 10:31:21;;;;;;;13.67;7.10;;;9.50;99.90;;;;;;4228951;27;20107;-62
2023/10/19 10:33:45;;;;;;;19.60;8.73;;;9.60;99.90;;;;;;4229392;28;20043;-59
2023/10/19 10:35:53;;;;;;;12.30;7.37;;;9.70;99.90;;;;;;4229152;28;20557;-63
2023/10/19 10:37:55;;;;;;;11.07;7.50;;;9.70;99.90;;;;;;4229253;27;20533;-59
2023/10/19 10:40:00;;;;;;;14.50;8.13;;;9.70;99.90;;;;;;4227310;28;20097;-59
2023/10/19 10:42:03;;;;;;;13.70;7.53;;;9.80;99.90;;;;;;4228806;27;20040;-60
2023/10/19 10:44:04;;;;;;;14.77;7.40;;;9.90;99.90;;;;;;4228387;28;20039;-59